APA weather

Centennial Airport
Denver, Colorado, United States

Public forecast

Using degrees Fahrenheit for public forecast. Weather courtesy of forecast.io.

METAR (pilot weather report)

Retrieved 2019/06/19 14:53 UTC (48 minutes ago):

KAPA 191453Z 20010KT 10SM FEW080 BKN220 17/09 A3005 RMK AO2 SLP127 T01720089 58001

TAF (pilot weather forecast)

Retrieved 2019/06/19 12:22 UTC (3 hours ago):

TAF KAPA 191120Z 1912/2012 02008KT P6SM BKN100 FM191400 35005KT P6SM SCT100 SCT220 FM191800 30010KT P6SM FEW110 SCT220 FM200100 27007KT P6SM FEW110 SCT220 FM200600 19009KT P6SM SCT220